Time;durP1;ratioP1;P1;durP2;ratioP2;P2;SDS_P1;SDS_P2;PMS_P1;PMS_P2;Temp;Humidity;BMP_temperature;BMP_pressure;BME280_temperature;BME280_humidity;BME280_pressure;Samples;Min_cycle;Max_cycle;Signal;HPM_P1;HPM_P2
2022/06/09 04:22:35;;;;;;;4.53;2.60;;;;;;;13.22;100.00;99894.88;5129721;27;20120;-76
2022/06/09 04:25:00;;;;;;;4.75;3.25;;;;;;;13.21;100.00;99896.72;5130129;28;20036;-76
2022/06/09 04:27:26;;;;;;;3.88;3.00;;;;;;;13.22;100.00;99901.03;5129897;28;20043;-76
2022/06/09 04:29:51;;;;;;;8.88;3.58;;;;;;;13.23;100.00;99908.03;5131192;28;20035;-78
2022/06/09 04:32:17;;;;;;;4.47;2.95;;;;;;;13.26;100.00;99910.31;5130361;28;20023;-77
2022/06/09 04:34:42;;;;;;;6.20;2.90;;;;;;;13.25;100.00;99911.34;5131108;28;20062;-77
2022/06/09 04:37:08;;;;;;;4.93;2.70;;;;;;;13.30;100.00;99916.09;5130719;28;20039;-77
2022/06/09 04:39:34;;;;;;;5.07;2.95;;;;;;;13.35;100.00;99915.50;5130501;28;20126;-78
2022/06/09 04:41:59;;;;;;;4.75;2.63;;;;;;;13.39;100.00;99922.94;5129772;28;20134;-77
2022/06/09 04:44:25;;;;;;;6.72;2.72;;;;;;;13.43;100.00;99921.53;5129892;28;20072;-79
2022/06/09 04:46:50;;;;;;;8.02;3.03;;;;;;;13.46;100.00;99923.78;5128903;28;20159;-78
2022/06/09 04:49:16;;;;;;;5.78;2.35;;;;;;;13.49;100.00;99926.03;5130064;28;20047;-77
2022/06/09 04:51:41;;;;;;;6.55;2.80;;;;;;;13.48;100.00;99931.59;5129919;28;20055;-77
2022/06/09 04:54:07;;;;;;;4.07;2.60;;;;;;;13.55;100.00;99932.44;5130736;28;20047;-77
2022/06/09 04:56:33;;;;;;;5.20;2.50;;;;;;;13.59;100.00;99925.69;5129479;28;20122;-76
2022/06/09 04:58:58;;;;;;;3.67;2.58;;;;;;;13.63;100.00;99936.81;5129373;28;20165;-76
2022/06/09 05:01:29;;;;;;;4.50;2.42;;;;;;;13.64;100.00;99941.97;5128610;28;20074;-78
2022/06/09 05:03:56;;;;;;;5.25;2.70;;;;;;;13.69;100.00;99944.88;5129585;28;20042;-78
2022/06/09 05:06:23;;;;;;;5.13;3.17;;;;;;;13.73;100.00;99951.47;5129915;28;20388;-78
2022/06/09 05:08:53;;;;;;;5.43;2.58;;;;;;;13.78;100.00;99956.22;5130137;28;20475;-78
2022/06/09 05:11:18;;;;;;;3.72;2.58;;;;;;;13.87;100.00;99959.53;5129717;28;20027;-78
2022/06/09 05:13:45;;;;;;;6.18;2.38;;;;;;;14.00;100.00;99964.94;5129138;28;20069;-78
2022/06/09 05:16:11;;;;;;;4.43;2.42;;;;;;;14.05;100.00;99957.13;5129113;28;20070;-77
2022/06/09 05:18:37;;;;;;;2.97;1.90;;;;;;;14.11;100.00;99972.38;5129460;28;20028;-77
2022/06/09 05:21:04;;;;;;;4.53;2.50;;;;;;;14.16;100.00;99969.09;5129054;28;20023;-77
2022/06/09 05:23:30;;;;;;;3.33;2.28;;;;;;;14.16;100.00;99969.94;5128799;28;20050;-76
2022/06/09 05:25:57;;;;;;;8.35;2.17;;;;;;;14.20;100.00;99971.16;5128877;28;20381;-77
2022/06/09 05:28:25;;;;;;;3.47;2.22;;;;;;;14.18;100.00;99962.50;5128792;28;20511;-76
2022/06/09 05:30:50;;;;;;;4.00;2.85;;;;;;;14.23;100.00;99976.13;5128810;28;20039;-76
2022/06/09 05:33:16;;;;;;;7.10;2.20;;;;;;;14.25;100.00;99971.38;5118826;28;20039;-77
2022/06/09 05:35:42;;;;;;;3.55;2.00;;;;;;;14.25;100.00;99971.38;5115841;28;20040;-79
2022/06/09 05:46:24;;;;;;;5.15;2.42;;;;;;;14.35;100.00;99987.06;5115607;28;20528;-76
2022/06/09 05:48:49;;;;;;;9.60;2.63;;;;;;;14.33;100.00;99971.16;5114928;28;20560;-77
2022/06/09 05:51:16;;;;;;;4.40;1.85;;;;;;;14.40;100.00;99977.38;5114838;28;20031;-79
2022/06/09 05:53:42;;;;;;;3.75;2.22;;;;;;;14.46;100.00;99974.91;5115516;28;20024;-78
2022/06/09 05:56:08;;;;;;;4.13;2.17;;;;;;;14.68;100.00;99983.63;5114715;28;20691;-75
2022/06/09 05:58:35;;;;;;;5.00;2.38;;;;;;;14.88;96.57;99977.22;5114403;28;20087;-74
2022/06/09 06:01:03;;;;;;;7.43;1.77;;;;;;;15.01;96.36;99986.28;5114355;28;20119;-75
2022/06/09 06:03:28;;;;;;;4.53;1.98;;;;;;;14.88;96.55;99990.63;5114241;28;20139;-74
2022/06/09 06:08:39;;;;;;;5.47;1.83;;;;;;;14.85;96.95;99996.38;5114515;28;20035;-74
2022/06/09 06:11:05;;;;;;;7.47;2.30;;;;;;;14.88;97.45;99995.97;5114366;28;20030;-74
2022/06/09 06:13:31;;;;;;;3.72;1.85;;;;;;;14.84;96.42;99994.75;5112563;28;20495;-75
2022/06/09 06:15:56;;;;;;;4.72;2.10;;;;;;;14.89;94.18;100007.53;5112989;28;20059;-74
2022/06/09 06:18:23;;;;;;;6.10;2.08;;;;;;;14.86;94.00;100007.94;5114126;28;20500;-74
2022/06/09 06:20:49;;;;;;;7.03;2.13;;;;;;;14.95;94.75;100021.97;5113931;28;20070;-74
2022/06/09 06:23:14;;;;;;;6.00;2.88;;;;;;;15.04;97.00;100020.72;5112651;28;20071;-77
2022/06/09 06:25:40;;;;;;;4.40;1.95;;;;;;;15.03;95.11;100014.53;5113978;28;20039;-77
2022/06/09 06:28:06;;;;;;;7.32;2.00;;;;;;;15.11;93.17;100024.22;5113912;28;20404;-77
2022/06/09 06:30:31;;;;;;;4.68;1.75;;;;;;;15.17;92.00;100032.25;5115117;28;20027;-77
2022/06/09 06:32:57;;;;;;;5.70;1.90;;;;;;;15.26;90.11;100035.56;5114794;28;20043;-77
2022/06/09 06:35:22;;;;;;;5.50;2.00;;;;;;;15.25;89.99;100025.84;5112430;28;20035;-77
2022/06/09 06:37:48;;;;;;;6.07;2.00;;;;;;;15.35;88.71;100031.63;5115636;28;20079;-78
2022/06/09 06:40:15;;;;;;;7.70;1.52;;;;;;;15.45;87.33;100034.72;5116586;28;20134;-79
2022/06/09 06:42:41;;;;;;;3.87;1.70;;;;;;;15.57;87.05;100045.59;5114828;28;20035;-78
2022/06/09 06:45:07;;;;;;;6.82;2.13;;;;;;;15.72;88.96;100040.03;5115414;28;20046;-78
2022/06/09 06:47:32;;;;;;;4.82;2.00;;;;;;;15.80;90.85;100047.03;5116628;28;20039;-80
2022/06/09 06:49:58;;;;;;;7.95;1.95;;;;;;;15.72;88.60;100050.78;5115317;28;20050;-80
2022/06/09 06:52:23;;;;;;;4.60;1.73;;;;;;;15.56;86.66;100053.88;5115086;28;20027;-79
2022/06/09 06:54:50;;;;;;;8.00;1.98;;;;;;;15.54;86.00;100055.94;5115285;28;20039;-79
2022/06/09 06:57:16;;;;;;;5.88;2.30;;;;;;;15.42;88.41;100067.31;5116471;28;20069;-79
2022/06/09 06:59:41;;;;;;;7.43;2.22;;;;;;;15.47;85.62;100069.38;5115715;28;20385;-79
2022/06/09 07:02:10;;;;;;;5.93;1.90;;;;;;;15.52;88.95;100063.38;5116386;28;20129;-79
2022/06/09 07:04:35;;;;;;;5.60;2.10;;;;;;;15.67;87.54;100080.13;5117580;28;20059;-79
2022/06/09 07:07:01;;;;;;;8.32;2.25;;;;;;;15.72;86.70;100075.75;5116999;28;20115;-78
2022/06/09 07:09:26;;;;;;;4.22;2.20;;;;;;;15.93;84.22;100079.22;5115629;28;20071;-79
2022/06/09 07:11:52;;;;;;;8.02;3.08;;;;;;;15.87;82.61;100083.56;5115935;28;20103;-79
2022/06/09 07:14:17;;;;;;;7.72;2.30;;;;;;;15.88;82.33;100087.91;5117662;28;20035;-79
2022/06/09 07:16:42;;;;;;;7.38;2.00;;;;;;;16.06;84.16;100083.72;5114852;28;20431;-78
2022/06/09 07:19:08;;;;;;;9.27;2.00;;;;;;;16.11;83.74;100097.34;5112411;28;20042;-79
2022/06/09 07:21:33;;;;;;;5.90;2.15;;;;;;;16.25;84.14;100099.75;5112969;28;20543;-76
2022/06/09 07:23:59;;;;;;;9.25;2.25;;;;;;;16.26;83.76;100096.00;5113905;28;20513;-78
2022/06/09 07:26:25;;;;;;;7.72;2.05;;;;;;;16.32;84.03;100098.91;5113198;28;20035;-78
2022/06/09 07:28:51;;;;;;;5.72;2.20;;;;;;;16.33;83.12;100104.03;5114518;28;20487;-77
2022/06/09 07:31:17;;;;;;;5.28;2.30;;;;;;;16.48;85.28;100101.88;5113115;28;20047;-77
2022/06/09 07:33:43;;;;;;;4.82;1.90;;;;;;;16.41;82.56;100103.78;5113523;28;20035;-78
2022/06/09 07:36:13;;;;;;;5.70;2.00;;;;;;;16.55;83.63;100108.06;5113789;28;20035;-78
2022/06/09 07:38:39;;;;;;;7.85;2.45;;;;;;;16.51;81.12;100106.84;5112851;28;20115;-78
2022/06/09 07:41:05;;;;;;;7.68;2.20;;;;;;;16.59;82.61;100108.47;5112487;28;20118;-79
2022/06/09 07:43:31;;;;;;;5.43;2.00;;;;;;;16.53;82.59;100112.00;5114330;28;20035;-78
2022/06/09 07:45:56;;;;;;;9.13;1.90;;;;;;;16.59;82.33;100115.69;5117351;28;20073;-77
2022/06/09 07:48:22;;;;;;;9.30;2.42;;;;;;;16.58;82.69;100119.44;5116174;28;20036;-79
2022/06/09 07:50:49;;;;;;;11.40;2.40;;;;;;;16.65;80.52;100122.91;5117806;28;20035;-77
2022/06/09 07:53:16;;;;;;;9.38;2.58;;;;;;;16.58;80.38;100112.19;5116940;28;20042;-78
2022/06/09 07:55:41;;;;;;;4.35;2.10;;;;;;;16.68;82.35;100119.78;5114738;28;20039;-78
2022/06/09 07:58:06;;;;;;;5.00;2.60;;;;;;;16.68;80.07;100120.59;5113478;28;20092;-78
2022/06/09 08:00:32;;;;;;;5.30;1.88;;;;;;;16.69;79.35;100114.22;5115439;28;20137;-77
2022/06/09 08:02:58;;;;;;;7.15;2.47;;;;;;;16.68;82.11;100123.28;5115116;28;20114;-78
2022/06/09 08:05:26;;;;;;;5.30;2.22;;;;;;;16.47;79.55;100123.63;5112900;28;20063;-79
2022/06/09 08:07:51;;;;;;;4.50;2.08;;;;;;;16.74;78.18;100111.69;5115100;28;20040;-79
2022/06/09 08:10:21;;;;;;;4.90;2.22;;;;;;;16.88;78.36;100117.81;5115309;28;20035;-78
2022/06/09 08:12:49;;;;;;;7.70;2.35;;;;;;;16.88;79.41;100117.81;5114321;28;20395;-78
2022/06/09 08:15:15;;;;;;;6.30;1.90;;;;;;;17.05;78.15;100121.63;5113104;28;20031;-77
2022/06/09 08:17:41;;;;;;;7.30;2.80;;;;;;;17.06;78.83;100112.50;5114513;28;20407;-77
2022/06/09 08:20:08;;;;;;;6.57;1.65;;;;;;;17.30;76.15;100123.53;5113562;28;20050;-78
2022/06/09 08:22:34;;;;;;;6.40;1.87;;;;;;;17.19;76.92;100126.91;5114372;28;20484;-78
2022/06/09 08:25:00;;;;;;;4.50;2.10;;;;;;;17.07;77.78;100130.31;5115041;28;20124;-79
2022/06/09 08:27:25;;;;;;;11.32;2.25;;;;;;;16.97;76.32;100129.97;5115161;28;20047;-78
2022/06/09 08:29:51;;;;;;;5.85;2.22;;;;;;;17.21;76.17;100131.03;5114633;28;20055;-77
2022/06/09 08:32:17;;;;;;;8.75;1.83;;;;;;;17.27;72.61;100126.63;5114390;28;20047;-78
2022/06/09 08:34:43;;;;;;;5.60;1.65;;;;;;;17.16;71.81;100132.75;5115289;28;20036;-78
2022/06/09 08:37:08;;;;;;;10.65;2.45;;;;;;;17.52;72.61;100127.44;5115419;28;20036;-78
2022/06/09 08:39:34;;;;;;;7.07;1.90;;;;;;;17.79;71.77;100128.03;5114734;28;20114;-78
2022/06/09 08:42:19;;;;;;;9.85;2.90;;;;;;;18.04;70.91;100130.69;5114811;28;20407;-77
2022/06/09 08:44:53;;;;;;;6.55;2.15;;;;;;;18.26;71.17;100138.31;5115578;28;20589;-79
2022/06/09 08:47:42;;;;;;;6.07;2.00;;;;;;;18.38;71.26;100136.50;5115991;28;20032;-78
2022/06/09 08:50:23;;;;;;;11.00;2.72;;;;;;;18.54;69.90;100135.88;5114677;28;20069;-78
2022/06/09 08:53:10;;;;;;;6.82;2.22;;;;;;;18.43;69.31;100139.34;5115354;28;20091;-79
2022/06/09 08:56:21;;;;;;;7.15;1.80;;;;;;;18.54;69.49;100145.84;5115827;28;20496;-78
2022/06/09 08:58:57;;;;;;;5.10;1.90;;;;;;;18.25;71.88;100142.88;5116605;28;20061;-79
2022/06/09 09:01:32;;;;;;;4.22;1.60;;;;;;;18.34;67.67;100146.09;5116132;28;20050;-78
2022/06/09 09:04:03;;;;;;;4.95;2.40;;;;;;;18.60;68.49;100144.94;5112147;28;20280;-77
2022/06/09 09:06:38;;;;;;;8.13;2.40;;;;;;;18.73;65.33;100149.34;5112211;28;20063;-76
2022/06/09 09:09:16;;;;;;;8.20;2.08;;;;;;;19.00;64.45;100145.22;5113557;28;20085;-76
2022/06/09 09:11:57;;;;;;;5.32;1.80;;;;;;;19.13;62.50;100150.41;5114015;28;20036;-75
2022/06/09 09:14:42;;;;;;;6.93;1.75;;;;;;;19.57;63.37;100140.13;5115557;28;20028;-76
2022/06/09 09:17:21;;;;;;;6.18;2.05;;;;;;;19.76;62.99;100144.41;5115442;28;20092;-77
2022/06/09 09:19:57;;;;;;;5.70;2.20;;;;;;;20.13;61.47;100141.41;5115510;28;20028;-77
2022/06/09 09:22:55;;;;;;;10.77;2.63;;;;;;;19.60;63.66;100146.97;5114423;28;20036;-77
2022/06/09 09:25:49;;;;;;;6.57;1.88;;;;;;;19.06;63.13;100157.78;5115274;28;20034;-77
2022/06/09 09:28:20;;;;;;;8.77;2.13;;;;;;;18.98;64.21;100158.13;5114219;28;20059;-77
2022/06/09 09:31:06;;;;;;;8.55;2.10;;;;;;;18.43;65.05;100167.13;5115799;28;20032;-77
2022/06/09 09:33:32;;;;;;;5.85;1.65;;;;;;;18.35;65.23;100177.41;5115235;28;20039;-76
2022/06/09 09:36:23;;;;;;;4.47;1.75;;;;;;;18.31;64.12;100178.88;5115302;28;20038;-77
2022/06/09 09:39:10;;;;;;;3.25;1.90;;;;;;;18.15;64.78;100173.06;5106708;28;20058;-77
2022/06/09 09:41:39;;;;;;;5.35;1.98;;;;;;;18.24;65.81;100178.97;5114846;28;20036;-76
2022/06/09 09:44:22;;;;;;;6.25;2.22;;;;;;;18.27;64.82;100177.72;5114715;28;20474;-77
2022/06/09 09:46:56;;;;;;;10.07;2.28;;;;;;;18.30;65.92;100174.56;5114612;28;20503;-77
2022/06/09 09:49:29;;;;;;;4.85;2.10;;;;;;;18.42;65.33;100186.22;5096462;28;20031;-77
2022/06/09 09:51:57;;;;;;;5.70;2.30;;;;;;;18.52;65.64;100188.38;5114395;28;20114;-78
2022/06/09 09:54:22;;;;;;;;;;;;;;;18.88;62.08;100185.66;5115172;28;20483;-78
2022/06/09 09:56:48;;;;;;;2.38;1.70;;;;;;;19.46;59.98;100176.06;5112979;28;19911;-76
2022/06/09 09:59:26;;;;;;;3.15;1.80;;;;;;;20.02;60.23;100177.41;5113637;28;20176;-79
2022/06/09 10:10:26;;;;;;;3.38;1.70;;;;;;;21.45;54.86;100180.16;5114826;28;20042;-78
2022/06/09 10:12:56;;;;;;;5.70;1.52;;;;;;;21.62;52.23;100184.53;5112209;28;20400;-77
2022/06/09 10:15:26;;;;;;;5.72;2.22;;;;;;;21.56;52.57;100184.69;5113051;28;20035;-77
2022/06/09 10:18:23;;;;;;;3.35;1.60;;;;;;;21.08;52.85;100194.16;5114365;28;20102;-76
2022/06/09 10:20:52;;;;;;;;;;;;;;;21.13;51.88;100186.13;5114991;28;20048;-77
2022/06/09 10:23:45;;;;;;;7.38;2.72;;;;;;;21.73;49.66;100190.94;5115945;28;19913;-76
2022/06/09 10:26:28;;;;;;;4.43;1.50;;;;;;;21.88;50.69;100187.63;5104596;28;20048;-77
2022/06/09 10:28:55;;;;;;;6.50;1.80;;;;;;;22.26;48.64;100199.56;5114422;28;20404;-77
2022/06/09 10:31:36;;;;;;;5.18;1.65;;;;;;;22.46;47.88;100205.25;5114034;28;20508;-78
2022/06/09 10:34:33;;;;;;;7.22;1.70;;;;;;;22.64;47.38;100198.69;5114025;28;20036;-77
2022/06/09 10:37:04;;;;;;;4.68;1.83;;;;;;;23.19;47.17;100200.38;5112796;28;20038;-78
2022/06/09 10:39:42;;;;;;;7.47;1.50;;;;;;;23.17;46.08;100197.94;5112669;28;20040;-77
2022/06/09 10:42:57;;;;;;;4.90;1.50;;;;;;;23.45;47.97;100202.25;5113501;28;20031;-77
2022/06/09 10:45:57;;;;;;;5.28;1.58;;;;;;;24.06;46.41;100202.72;5053943;28;20568;-77
2022/06/09 10:57:11;;;;;;;7.97;1.60;;;;;;;24.93;42.28;100194.13;5114312;28;20028;-78
2022/06/09 10:59:40;;;;;;;5.38;2.10;;;;;;;24.80;42.47;100190.00;5113478;28;20142;-79
2022/06/09 11:02:33;;;;;;;4.70;1.60;;;;;;;24.41;42.13;100192.31;5113819;28;20122;-78
2022/06/09 11:05:00;;;;;;;4.43;1.45;;;;;;;24.24;42.79;100192.47;5111511;28;20560;-78
2022/06/09 11:07:54;;;;;;;5.07;1.60;;;;;;;23.91;44.62;100194.47;5113395;28;20035;-77
2022/06/09 11:10:29;;;;;;;4.10;1.50;;;;;;;23.77;45.43;100196.00;5113642;28;20040;-77
2022/06/09 11:13:16;;;;;;;5.93;1.75;;;;;;;23.65;46.56;100188.03;5111725;28;20039;-79
2022/06/09 11:15:49;;;;;;;4.00;1.30;;;;;;;22.91;48.92;100196.84;5114566;28;20054;-77
2022/06/09 11:18:39;;;;;;;9.60;1.70;;;;;;;22.90;47.56;100195.22;5115676;28;20075;-78
2022/06/09 11:21:08;;;;;;;3.80;1.52;;;;;;;22.29;51.07;100193.63;5114360;28;20515;-78
2022/06/09 11:23:55;;;;;;;6.57;1.88;;;;;;;22.24;50.11;100193.59;5115423;28;20073;-79
2022/06/09 11:26:42;;;;;;;5.00;1.33;;;;;;;21.79;48.99;100189.94;5116546;28;20038;-77
2022/06/09 11:29:44;;;;;;;5.18;1.75;;;;;;;21.71;50.07;100200.38;5115655;28;20044;-78
2022/06/09 11:32:38;;;;;;;6.43;1.50;;;;;;;21.13;52.31;100196.97;5113849;28;20148;-77
2022/06/09 11:35:04;;;;;;;6.40;1.75;;;;;;;20.89;52.28;100195.44;5113645;28;20039;-77
2022/06/09 11:37:50;;;;;;;5.22;1.80;;;;;;;21.05;52.03;100191.91;5113894;28;20028;-77
2022/06/09 11:40:37;;;;;;;2.45;1.40;;;;;;;21.00;51.93;100194.56;5114046;28;20046;-77
2022/06/09 11:43:32;;;;;;;5.13;2.15;;;;;;;21.75;51.18;100183.38;5113777;28;20528;-78
2022/06/09 11:46:05;;;;;;;6.20;1.83;;;;;;;22.05;49.70;100187.59;5113496;28;20035;-77
2022/06/09 11:48:40;;;;;;;3.85;1.65;;;;;;;21.86;50.08;100192.47;5113353;28;20046;-77
2022/06/09 11:51:07;;;;;;;5.38;1.95;;;;;;;21.53;49.43;100196.03;5114054;28;20077;-77
2022/06/09 11:53:39;;;;;;;3.28;1.73;;;;;;;21.26;48.45;100196.66;5113764;28;20043;-78
2022/06/09 11:56:33;;;;;;;4.65;1.70;;;;;;;21.49;49.53;100194.88;5116010;28;20096;-79
2022/06/09 11:59:11;;;;;;;6.35;1.58;;;;;;;21.49;49.15;100203.00;5115347;28;20419;-78
2022/06/09 12:01:39;;;;;;;;;;;;;;;21.85;48.68;100190.84;5114754;28;20060;-77
2022/06/09 12:04:13;;;;;;;4.10;1.23;;;;;;;22.84;47.75;100189.97;5112949;28;19914;-78
2022/06/09 12:06:50;;;;;;;4.70;1.38;;;;;;;23.28;46.95;100190.69;5112753;28;20032;-77
2022/06/09 12:09:35;;;;;;;4.00;1.40;;;;;;;23.87;44.38;100187.91;5113107;28;20036;-79
2022/06/09 12:12:23;;;;;;;2.03;1.13;;;;;;;24.89;42.64;100191.91;5117600;28;20412;-78
2022/06/09 12:15:08;;;;;;;3.72;1.33;;;;;;;24.36;42.76;100195.81;5115316;28;20035;-79
2022/06/09 12:17:34;;;;;;;3.03;1.63;;;;;;;24.24;42.21;100187.84;5115012;28;20032;-81
2022/06/09 12:20:08;;;;;;;2.47;1.27;;;;;;;24.81;41.70;100187.00;5115323;28;20030;-79
2022/06/09 12:22:45;;;;;;;5.75;1.52;;;;;;;25.40;41.64;100191.19;5113790;28;20039;-80
2022/06/09 12:25:16;;;;;;;;;;;;;;;25.92;41.24;100198.28;5114557;28;20043;-79
2022/06/09 12:27:45;;;;;;;5.70;1.35;;;;;;;25.76;37.66;100204.84;5114049;28;19935;-78
2022/06/09 12:30:37;;;;;;;2.85;1.30;;;;;;;25.16;38.75;100215.44;5113756;28;20040;-78
2022/06/09 12:33:15;;;;;;;5.63;1.30;;;;;;;24.81;39.11;100208.78;5113544;28;20485;-78
2022/06/09 12:35:46;;;;;;;3.92;1.30;;;;;;;25.20;38.87;100216.53;5113323;28;20459;-78
2022/06/09 12:38:26;;;;;;;3.33;1.33;;;;;;;25.75;40.25;100206.75;5113224;28;20430;-77
2022/06/09 12:40:56;;;;;;;4.65;1.73;;;;;;;26.08;40.56;100219.00;5114052;28;20031;-78
2022/06/09 12:43:38;;;;;;;3.38;1.17;;;;;;;26.17;37.01;100211.03;5117094;28;20051;-77
2022/06/09 12:46:26;;;;;;;4.53;1.48;;;;;;;26.51;38.00;100213.94;5119512;28;20209;-78
2022/06/09 12:48:53;;;;;;;9.13;2.50;;;;;;;26.89;36.92;100215.13;5119957;28;20070;-78
2022/06/09 12:51:39;;;;;;;4.15;1.45;;;;;;;26.87;37.73;100222.81;5119830;27;20032;-77
2022/06/09 12:54:17;;;;;;;2.20;1.13;;;;;;;26.62;38.37;100222.94;5118824;28;20039;-77
2022/06/09 12:56:52;;;;;;;3.28;1.58;;;;;;;26.36;38.27;100233.91;5120439;28;20032;-77
2022/06/09 12:59:33;;;;;;;4.10;1.35;;;;;;;25.16;41.85;100242.69;5122493;28;20058;-78
2022/06/09 13:02:19;;;;;;;5.00;1.30;;;;;;;23.95;42.37;100244.53;5119153;27;20035;-78
2022/06/09 13:04:57;;;;;;;5.57;1.48;;;;;;;23.74;43.37;100243.59;5118115;28;20031;-77
2022/06/09 13:07:34;;;;;;;4.05;1.23;;;;;;;23.87;44.01;100246.94;5118485;28;20070;-78
2022/06/09 13:10:02;;;;;;;4.53;1.38;;;;;;;23.31;44.43;100254.56;5120844;28;20028;-78
2022/06/09 13:15:24;;;;;;;4.13;1.30;;;;;;;21.95;48.64;100259.59;5118923;28;20058;-77
2022/06/09 13:17:50;;;;;;;4.47;1.45;;;;;;;21.67;49.55;100260.50;5115330;28;20027;-77
2022/06/09 13:20:19;;;;;;;4.13;1.70;;;;;;;21.26;50.34;100269.78;5115682;28;20353;-77
2022/06/09 13:22:45;;;;;;;5.65;1.75;;;;;;;21.60;50.52;100265.25;5114317;28;20031;-78
2022/06/09 13:25:16;;;;;;;4.85;1.60;;;;;;;21.55;52.48;100261.66;5117066;28;20068;-77
2022/06/09 13:27:45;;;;;;;5.28;1.67;;;;;;;21.42;51.34;100262.78;5115475;28;20042;-77
2022/06/09 13:30:19;;;;;;;4.13;1.40;;;;;;;21.36;50.05;100278.13;5114245;28;20128;-77
2022/06/09 13:32:47;;;;;;;4.13;1.80;;;;;;;21.39;51.65;100258.69;5115050;28;20036;-76
2022/06/09 13:35:39;;;;;;;9.55;1.70;;;;;;;21.47;50.82;100262.06;5113840;28;20031;-76
2022/06/09 13:38:04;;;;;;;3.00;1.42;;;;;;;21.83;50.08;100261.56;5113982;28;20047;-76
2022/06/09 13:40:42;;;;;;;2.70;1.35;;;;;;;21.90;48.79;100259.50;5113657;28;20031;-77
2022/06/09 13:43:17;;;;;;;6.15;1.50;;;;;;;22.30;49.06;100254.97;5114700;28;20031;-76
2022/06/09 13:45:54;;;;;;;3.30;1.55;;;;;;;22.44;49.49;100258.97;5114909;28;20067;-77
2022/06/09 13:48:23;;;;;;;3.30;1.33;;;;;;;22.51;46.79;100254.19;5096423;28;20150;-76
2022/06/09 13:51:08;;;;;;;3.13;1.33;;;;;;;21.93;45.13;100253.59;5113399;28;20032;-76
2022/06/09 13:53:50;;;;;;;4.75;1.20;;;;;;;21.94;46.29;100251.72;5112895;28;20039;-76
2022/06/09 13:56:16;;;;;;;1.90;1.00;;;;;;;21.86;46.15;100244.81;5114681;28;20122;-76
2022/06/09 13:58:42;;;;;;;2.33;1.20;;;;;;;22.17;47.02;100242.59;5114572;28;20049;-76
2022/06/09 14:01:09;;;;;;;3.03;1.30;;;;;;;22.17;45.35;100239.88;5114599;28;20597;-76
2022/06/09 14:03:38;;;;;;;;;;;;;;;22.30;46.89;100238.69;5114719;28;20039;-76
2022/06/09 14:06:13;;;;;;;4.70;1.40;;;;;;;21.99;47.13;100250.97;5114404;28;19994;-76
2022/06/09 14:08:41;;;;;;;5.25;1.67;;;;;;;21.95;47.46;100258.78;5114445;28;20476;-76
2022/06/09 14:11:08;;;;;;;3.25;1.48;;;;;;;21.85;48.24;100272.19;5114353;28;20049;-76
2022/06/09 14:13:36;;;;;;;2.67;1.38;;;;;;;21.73;47.36;100277.69;5114060;28;20040;-77
2022/06/09 14:16:02;;;;;;;3.45;1.55;;;;;;;21.30;50.79;100300.75;5112842;28;20481;-76
2022/06/09 14:18:30;;;;;;;3.70;1.77;;;;;;;21.20;50.74;100295.13;5114705;28;20042;-78
2022/06/09 14:20:57;;;;;;;4.13;1.65;;;;;;;20.84;55.86;100313.38;5114020;28;20516;-77
2022/06/09 14:23:29;;;;;;;8.00;2.20;;;;;;;20.63;61.02;100334.81;5113920;28;20050;-76
2022/06/09 14:26:17;;;;;;;4.00;2.00;;;;;;;19.60;64.35;100350.41;5095846;28;20082;-76
2022/06/09 14:28:42;;;;;;;6.68;2.28;;;;;;;19.01;67.99;100357.41;5112886;28;20047;-76
2022/06/09 14:31:13;;;;;;;9.07;3.20;;;;;;;18.16;73.62;100358.00;5112457;28;20385;-76
2022/06/09 14:33:38;;;;;;;5.75;2.10;;;;;;;17.63;74.69;100347.59;5113419;28;20032;-77
2022/06/09 14:36:03;;;;;;;3.90;1.80;;;;;;;17.54;74.91;100351.59;5112313;28;20084;-78
2022/06/09 14:38:29;;;;;;;6.22;2.25;;;;;;;17.28;75.30;100357.13;5113077;28;20086;-76
2022/06/09 14:40:55;;;;;;;4.78;2.38;;;;;;;17.35;76.47;100360.59;5113839;28;20039;-76
2022/06/09 14:43:21;;;;;;;4.35;2.03;;;;;;;17.33;77.94;100360.78;5112243;28;20044;-76
2022/06/09 14:45:53;;;;;;;6.97;2.38;;;;;;;17.42;79.61;100366.78;5113291;28;20086;-77
2022/06/09 14:48:21;;;;;;;9.27;2.22;;;;;;;16.94;81.06;100367.16;5113646;28;20035;-76
2022/06/09 14:50:48;;;;;;;3.10;1.90;;;;;;;17.03;79.33;100363.22;5112348;28;20055;-76
2022/06/09 14:53:15;;;;;;;7.28;2.35;;;;;;;16.70;82.87;100370.56;5113815;27;20034;-77
2022/06/09 14:55:41;;;;;;;4.25;2.25;;;;;;;16.40;86.21;100381.72;5113543;28;20035;-78
2022/06/09 14:58:09;;;;;;;4.65;2.22;;;;;;;16.80;86.46;100379.00;5113421;28;20100;-78
2022/06/09 15:00:35;;;;;;;8.27;2.40;;;;;;;16.70;85.21;100373.25;5113315;27;20035;-77
2022/06/09 15:03:01;;;;;;;6.55;2.70;;;;;;;16.37;90.40;100381.31;5113133;28;20396;-78
2022/06/09 15:05:27;;;;;;;4.22;2.38;;;;;;;16.76;86.59;100381.31;5112715;28;20039;-79
2022/06/09 15:07:53;;;;;;;6.82;2.53;;;;;;;16.38;91.20;100383.78;5111854;28;20073;-78
2022/06/09 15:10:25;;;;;;;8.18;2.78;;;;;;;16.41;92.52;100383.38;5113091;28;20080;-79
2022/06/09 15:12:52;;;;;;;6.95;2.88;;;;;;;16.74;91.88;100394.13;5111778;28;20032;-79
2022/06/09 15:15:18;;;;;;;6.97;2.38;;;;;;;16.57;88.94;100392.06;5114762;28;20110;-77
2022/06/09 15:17:45;;;;;;;8.85;3.13;;;;;;;16.71;94.11;100399.94;5117293;28;20088;-76
2022/06/09 15:20:23;;;;;;;6.72;3.10;;;;;;;16.87;92.65;100395.94;5123488;28;20040;-77
2022/06/09 15:22:49;;;;;;;6.30;2.75;;;;;;;16.85;91.84;100394.53;5115614;28;20118;-78
2022/06/09 15:25:15;;;;;;;8.52;4.28;;;;;;;17.02;93.20;100395.72;5113682;28;20042;-78
2022/06/09 15:27:41;;;;;;;8.50;3.03;;;;;;;16.97;94.31;100404.41;5113456;28;20028;-78
2022/06/09 15:30:14;;;;;;;6.43;3.20;;;;;;;16.84;94.44;100407.16;5116199;28;20428;-78
2022/06/09 15:32:39;;;;;;;4.30;2.80;;;;;;;17.00;91.68;100408.53;5114846;28;20035;-76
2022/06/09 15:35:05;;;;;;;5.18;2.67;;;;;;;17.02;88.90;100407.31;5113498;28;20134;-79
2022/06/09 15:37:31;;;;;;;4.88;2.40;;;;;;;17.26;84.68;100407.63;5115966;28;20040;-77
2022/06/09 15:39:56;;;;;;;7.82;3.13;;;;;;;17.34;86.95;100416.31;5117514;28;20040;-77
2022/06/09 15:42:22;;;;;;;3.85;2.20;;;;;;;17.27;88.88;100418.19;5119255;28;20035;-78
2022/06/09 15:44:47;;;;;;;4.55;2.70;;;;;;;17.05;89.52;100414.13;5119542;28;20043;-78
2022/06/09 15:47:13;;;;;;;3.97;2.33;;;;;;;17.13;89.65;100419.28;5125508;28;20039;-78
2022/06/09 15:49:38;;;;;;;5.32;2.70;;;;;;;16.97;91.34;100419.75;5116938;28;20153;-76
2022/06/09 15:52:04;;;;;;;6.13;2.78;;;;;;;16.99;94.43;100418.47;5111533;28;20035;-76
2022/06/09 15:54:29;;;;;;;4.38;2.50;;;;;;;16.95;92.70;100422.66;5114256;28;20032;-76
2022/06/09 15:56:55;;;;;;;6.68;2.90;;;;;;;16.87;94.61;100416.66;5112177;28;20130;-76
2022/06/09 15:59:20;;;;;;;4.70;2.30;;;;;;;16.88;91.80;100424.50;5112493;28;20107;-76
2022/06/09 16:01:46;;;;;;;5.32;2.53;;;;;;;16.99;90.75;100429.25;5117089;28;20116;-78
2022/06/09 16:04:11;;;;;;;5.07;3.20;;;;;;;17.20;90.95;100435.41;5127951;28;20087;-78
2022/06/09 16:06:37;;;;;;;8.00;2.30;;;;;;;17.31;90.69;100432.06;5128932;28;20469;-78
2022/06/09 16:09:03;;;;;;;5.30;2.67;;;;;;;17.45;88.05;100432.81;5128055;28;20671;-78
2022/06/09 16:11:29;;;;;;;5.32;2.47;;;;;;;17.57;87.08;100428.44;5124233;28;20395;-77
2022/06/09 16:13:55;;;;;;;8.20;3.55;;;;;;;17.72;87.26;100433.56;5123129;28;20068;-79
2022/06/09 16:16:20;;;;;;;10.20;5.00;;;;;;;17.91;86.11;100429.91;5121062;28;20059;-78
2022/06/09 16:18:46;;;;;;;7.43;3.22;;;;;;;18.04;83.09;100437.09;5122586;28;20051;-77
2022/06/09 16:21:11;;;;;;;6.97;3.78;;;;;;;18.12;78.97;100432.25;5120744;28;20397;-78
2022/06/09 16:23:37;;;;;;;6.72;2.30;;;;;;;18.12;78.99;100426.03;5121206;28;20049;-78
2022/06/09 16:26:02;;;;;;;7.85;4.55;;;;;;;18.30;79.80;100438.78;5095609;28;20042;-75
2022/06/09 16:28:31;;;;;;;2.75;2.47;;;;;;;18.33;76.94;100441.06;5111901;28;20040;-76
2022/06/09 16:30:56;;;;;;;3.75;2.35;;;;;;;18.34;81.28;100435.44;5085602;22;20110;-75
2022/06/09 16:33:23;;;;;;;5.20;2.60;;;;;;;18.30;80.16;100441.47;5035808;28;20132;-73
2022/06/09 16:35:51;;;;;;;2.70;2.10;;;;;;;18.48;80.10;100448.81;5017190;28;20044;-73
2022/06/09 16:38:17;;;;;;;4.53;1.90;;;;;;;18.44;79.75;100453.81;5051734;28;20125;-73